Details for Norwegian Air International at LEMD




Go Back


Latest METAR
Local Time

LEMD 212300Z 34002KT CAVOK 23/11 Q1019 NOSIG

22/06/2018, 01:30:35

Description
Results
Norwegian Air International Logo
Number of Pilots based at LEMD
0 Pilots Based here
Number of Norwegian Air International Flights Departed from LEMD
1 Flights Departed
Number of Norwegian Air International Flights Arrived at LEMD
2 Flights Arrived
Number of Norwegian Air International Schedules Departing from LEMD
29 Schedules
Number of Norwegian Air International Schedules Arriving at LEMD
29 Schedules
Number of Norwegian Air International Schedules Departing from LEMD availible today
13 Schedules Today
Number of Norwegian Air International Schedules Arriving at LEMD availible today
13 Schedules Today
Average Landing Rate at LEMD
-205 fpm
Norwegian Air International Average Landing Rate at LEMD
-77 fpm
Total Fuel Purchased at LEMD by Norwegian Air International
9,159.39 kgs / 20,192.79 lbs

Pilots Based at LEMD


Pilot ID
Pilot Name
Pilot Rank
No. of Flights
No. of Flying Hours
There are no pilots assigned to this hub!   Will you be the first?
Content